Time;durP1;ratioP1;P1;durP2;ratioP2;P2;SDS_P1;SDS_P2;PMS_P1;PMS_P2;Temp;Humidity;BMP_temperature;BMP_pressure;BME280_temperature;BME280_humidity;BME280_pressure;Samples;Min_cycle;Max_cycle;Signal;HPM_P1;HPM_P2
2023/06/11 00:01:17;;;;;;;27.38;17.35;;;;;;;17.52;100.00;100265.16;5106852;27;20627;-80
2023/06/11 00:03:46;;;;;;;32.17;19.02;;;;;;;17.50;100.00;100256.53;5074555;27;20030;-80
2023/06/11 00:06:17;;;;;;;25.52;16.13;;;;;;;17.51;100.00;100263.50;5105976;27;22094;-78
2023/06/11 00:08:47;;;;;;;30.40;16.75;;;;;;;17.55;100.00;100254.06;5102809;28;20268;-78
2023/06/11 00:11:13;;;;;;;23.20;16.88;;;;;;;17.55;100.00;100264.75;5092605;27;20507;-79
2023/06/11 00:13:38;;;;;;;22.88;16.15;;;;;;;17.52;100.00;100259.81;5088949;27;20027;-79
2023/06/11 00:16:06;;;;;;;27.58;18.33;;;;;;;17.51;100.00;100252.81;5096389;27;20516;-79
2023/06/11 00:18:31;;;;;;;28.48;17.85;;;;;;;17.48;100.00;100256.72;5092340;28;20481;-79
2023/06/11 00:20:58;;;;;;;23.48;17.55;;;;;;;17.49;100.00;100257.53;5092659;27;20046;-79
2023/06/11 00:23:24;;;;;;;31.20;18.05;;;;;;;17.50;100.00;100255.69;5112082;27;20106;-79
2023/06/11 00:25:53;;;;;;;21.20;15.50;;;;;;;17.52;100.00;100253.66;5095082;27;20504;-79
2023/06/11 00:28:19;;;;;;;28.13;18.23;;;;;;;17.51;100.00;100260.00;5095807;27;20488;-80
2023/06/11 00:30:45;;;;;;;30.88;18.48;;;;;;;17.45;100.00;100257.13;5091520;27;20046;-80
2023/06/11 00:33:11;;;;;;;30.45;18.48;;;;;;;17.41;100.00;100252.31;5123909;27;20610;-80
2023/06/11 00:35:37;;;;;;;25.00;18.42;;;;;;;17.45;100.00;100258.94;5100821;27;20031;-79
2023/06/11 00:38:03;;;;;;;31.45;18.95;;;;;;;17.41;100.00;100255.00;5080606;27;20143;-79
2023/06/11 00:40:30;;;;;;;36.70;20.30;;;;;;;17.39;100.00;100254.38;5097140;27;20053;-79
2023/06/11 00:42:57;;;;;;;32.53;19.40;;;;;;;17.32;100.00;100257.00;5100520;27;20043;-79
2023/06/11 00:45:24;;;;;;;31.77;19.13;;;;;;;17.33;100.00;100261.31;5109169;27;20026;-80
2023/06/11 00:47:50;;;;;;;31.23;20.23;;;;;;;17.33;100.00;100258.63;5068772;28;20043;-79
2023/06/11 00:50:16;;;;;;;29.58;19.27;;;;;;;17.28;100.00;100259.22;5087039;28;20031;-79
2023/06/11 00:52:43;;;;;;;33.42;20.05;;;;;;;17.26;100.00;100263.13;5094181;27;20031;-79
2023/06/11 00:55:11;;;;;;;33.78;19.15;;;;;;;17.20;100.00;100260.19;5095030;27;20037;-79
2023/06/11 00:57:41;;;;;;;34.60;20.90;;;;;;;17.25;100.00;100259.59;5106552;27;20102;-79
2023/06/11 01:00:12;;;;;;;34.95;19.75;;;;;;;17.26;100.00;100261.28;5115126;27;20031;-78
2023/06/11 01:02:51;;;;;;;31.27;20.48;;;;;;;17.30;100.00;100256.34;5094804;27;20031;-79
2023/06/11 01:05:21;;;;;;;31.60;20.05;;;;;;;17.32;100.00;100259.66;5112218;27;20480;-80
2023/06/11 01:07:51;;;;;;;31.48;20.65;;;;;;;17.33;100.00;100263.97;5126688;27;20192;-79
2023/06/11 01:10:21;;;;;;;28.95;17.88;;;;;;;17.31;100.00;100266.03;5103846;27;20118;-79
2023/06/11 01:12:50;;;;;;;33.20;18.65;;;;;;;17.30;100.00;100262.53;5087290;28;20049;-79
2023/06/11 01:15:16;;;;;;;27.17;19.05;;;;;;;17.31;100.00;100258.84;5099476;28;20388;-79
2023/06/11 01:17:50;;;;;;;31.60;18.75;;;;;;;17.29;100.00;100260.06;5091571;27;20038;-79
2023/06/11 01:20:25;;;;;;;32.33;20.48;;;;;;;17.29;100.00;100254.72;5105801;27;20027;-79
2023/06/11 01:22:56;;;;;;;29.67;20.02;;;;;;;17.29;100.00;100252.88;5098658;27;20033;-78
2023/06/11 01:25:44;;;;;;;30.55;19.00;;;;;;;17.35;100.00;100261.94;5112015;27;20067;-79
2023/06/11 01:28:16;;;;;;;26.35;17.08;;;;;;;17.36;100.00;100263.59;5091577;28;20051;-79
2023/06/11 01:30:48;;;;;;;25.90;18.50;;;;;;;17.39;100.00;100265.06;5072993;27;20172;-79
2023/06/11 01:33:14;;;;;;;25.58;17.08;;;;;;;17.40;100.00;100262.22;5081461;28;20062;-78
2023/06/11 01:35:46;;;;;;;27.35;17.15;;;;;;;17.44;100.00;100258.13;5073565;27;20038;-79
2023/06/11 01:38:13;;;;;;;24.60;16.58;;;;;;;17.41;100.00;100261.19;5099499;27;20063;-79
2023/06/11 01:40:43;;;;;;;25.60;18.20;;;;;;;17.44;100.00;100259.97;5074247;28;20046;-79
2023/06/11 01:43:09;;;;;;;24.30;17.58;;;;;;;17.47;100.00;100257.72;5096985;27;20035;-79
2023/06/11 01:45:36;;;;;;;25.58;16.90;;;;;;;17.45;100.00;100259.78;5093379;27;20034;-80
2023/06/11 01:48:02;;;;;;;22.67;16.17;;;;;;;17.46;100.00;100258.75;5102309;27;20023;-79
2023/06/11 01:50:29;;;;;;;24.30;16.30;;;;;;;17.47;100.00;100251.56;5092893;27;20031;-79
2023/06/11 01:52:55;;;;;;;21.77;16.00;;;;;;;17.50;100.00;100253.84;5077995;27;20034;-79
2023/06/11 01:55:22;;;;;;;23.75;15.68;;;;;;;17.51;100.00;100250.16;5069571;27;20091;-80
2023/06/11 01:57:48;;;;;;;22.40;16.33;;;;;;;17.51;100.00;100257.34;5127961;27;20484;-78
2023/06/11 02:00:14;;;;;;;21.35;14.48;;;;;;;17.52;100.00;100262.47;5094678;27;20039;-78
2023/06/11 02:02:46;;;;;;;20.55;15.10;;;;;;;17.58;100.00;100258.22;5091181;28;20035;-78
2023/06/11 02:05:14;;;;;;;19.27;14.75;;;;;;;17.56;100.00;100253.06;5084600;28;20118;-79
2023/06/11 02:07:40;;;;;;;21.27;14.27;;;;;;;17.51;100.00;100258.16;5105933;28;20571;-79
2023/06/11 02:10:07;;;;;;;22.60;14.85;;;;;;;17.51;100.00;100252.00;5093153;27;20384;-79
2023/06/11 02:12:33;;;;;;;21.17;14.52;;;;;;;17.52;100.00;100248.31;5074739;28;20027;-79
2023/06/11 02:14:59;;;;;;;22.95;14.63;;;;;;;17.52;100.00;100246.44;5095420;28;20039;-79
2023/06/11 02:17:25;;;;;;;17.73;14.45;;;;;;;17.51;100.00;100243.97;5077484;27;20054;-78
2023/06/11 02:19:50;;;;;;;19.73;14.50;;;;;;;17.52;100.00;100248.31;5092018;27;20038;-79
2023/06/11 02:22:17;;;;;;;20.08;13.90;;;;;;;17.55;100.00;100251.41;5076446;27;20484;-79
2023/06/11 02:24:43;;;;;;;18.75;13.27;;;;;;;17.57;100.00;100251.22;5095884;27;20473;-79
2023/06/11 02:27:09;;;;;;;21.10;14.13;;;;;;;17.57;100.00;100252.03;5093376;28;20481;-79
2023/06/11 02:29:35;;;;;;;18.52;12.95;;;;;;;17.58;100.00;100242.19;5090224;27;20035;-79
2023/06/11 02:32:03;;;;;;;19.52;14.02;;;;;;;17.63;100.00;100246.94;5115029;27;20027;-78
2023/06/11 02:34:29;;;;;;;19.48;14.20;;;;;;;17.63;100.00;100241.59;5118038;27;20083;-80
2023/06/11 02:36:55;;;;;;;18.35;14.05;;;;;;;17.63;100.00;100247.75;5091659;27;20035;-78
2023/06/11 02:39:21;;;;;;;19.40;12.88;;;;;;;17.64;100.00;100249.41;5074318;27;20504;-78
2023/06/11 02:41:47;;;;;;;18.45;12.77;;;;;;;17.64;100.00;100251.25;5096458;28;20039;-81
2023/06/11 02:44:13;;;;;;;16.48;13.25;;;;;;;17.66;100.00;100247.34;5089037;27;20039;-79
2023/06/11 02:46:39;;;;;;;19.67;13.60;;;;;;;17.66;100.00;100243.88;5077205;27;20027;-78
2023/06/11 02:49:05;;;;;;;18.48;13.05;;;;;;;17.66;100.00;100244.69;5106314;27;20038;-79
2023/06/11 02:51:31;;;;;;;18.38;13.88;;;;;;;17.66;100.00;100236.66;5087119;27;20046;-79
2023/06/11 02:53:57;;;;;;;23.05;14.68;;;;;;;17.66;100.00;100235.84;5112874;27;20023;-82
2023/06/11 02:56:22;;;;;;;21.30;14.50;;;;;;;17.66;100.00;100239.34;5074500;28;20032;-80
2023/06/11 02:58:49;;;;;;;18.85;13.05;;;;;;;17.67;100.00;100238.34;5103148;27;20588;-78
2023/06/11 03:01:15;;;;;;;21.98;14.98;;;;;;;17.68;100.00;100239.97;5071970;28;20560;-78
2023/06/11 03:03:41;;;;;;;17.10;13.80;;;;;;;17.67;100.00;100234.81;5106741;27;20035;-79
2023/06/11 03:06:08;;;;;;;19.98;12.95;;;;;;;17.68;100.00;100239.13;5119374;27;20694;-79
2023/06/11 03:08:34;;;;;;;19.20;13.23;;;;;;;17.62;100.00;100235.41;5101180;27;20038;-79
2023/06/11 03:11:00;;;;;;;18.25;13.55;;;;;;;17.61;100.00;100239.94;5092625;27;20031;-77
2023/06/11 03:13:26;;;;;;;16.38;12.43;;;;;;;17.58;100.00;100242.19;5095381;27;20039;-77
2023/06/11 03:15:55;;;;;;;20.13;13.20;;;;;;;17.56;100.00;100239.72;5107573;27;20030;-78
2023/06/11 03:18:22;;;;;;;17.13;13.48;;;;;;;17.53;100.00;100240.09;5093201;28;20027;-80
2023/06/11 03:20:48;;;;;;;16.65;13.15;;;;;;;17.46;100.00;100239.22;5073968;28;20126;-79
2023/06/11 03:23:17;;;;;;;23.35;12.63;;;;;;;17.48;100.00;100239.84;5111606;27;20034;-81
2023/06/11 03:25:43;;;;;;;19.70;13.07;;;;;;;17.39;100.00;100243.69;5097502;27;20030;-81
2023/06/11 03:28:09;;;;;;;16.60;12.27;;;;;;;17.33;100.00;100242.63;5097606;27;20122;-78
2023/06/11 03:30:35;;;;;;;19.33;12.05;;;;;;;17.31;100.00;100248.16;5094948;27;20034;-78
2023/06/11 03:33:02;;;;;;;13.55;11.30;;;;;;;17.30;100.00;100246.50;5099813;27;20560;-77
2023/06/11 03:35:29;;;;;;;15.45;11.35;;;;;;;17.30;100.00;100251.00;5087807;28;20504;-77
2023/06/11 03:37:55;;;;;;;14.75;12.15;;;;;;;17.30;100.00;100256.34;5108195;27;20027;-77
2023/06/11 03:40:23;;;;;;;17.95;12.70;;;;;;;17.29;100.00;100254.72;5087106;28;20023;-79
2023/06/11 03:42:51;;;;;;;17.17;12.90;;;;;;;17.29;100.00;100252.88;5108215;27;20091;-79
2023/06/11 03:45:17;;;;;;;18.35;13.55;;;;;;;17.29;100.00;100252.88;5088714;27;20023;-79
2023/06/11 03:47:43;;;;;;;19.65;13.10;;;;;;;17.27;100.00;100252.25;5114070;27;20106;-79
2023/06/11 03:50:09;;;;;;;20.58;13.05;;;;;;;17.27;100.00;100256.75;5095954;27;20034;-79
2023/06/11 03:52:36;;;;;;;24.30;14.40;;;;;;;17.23;100.00;100259.00;5091424;27;20039;-78
2023/06/11 03:55:03;;;;;;;17.85;13.18;;;;;;;17.17;100.00;100260.56;5081778;27;20053;-79
2023/06/11 03:57:29;;;;;;;16.95;11.63;;;;;;;17.15;100.00;100257.28;5097064;27;20059;-79
2023/06/11 03:59:55;;;;;;;16.83;11.98;;;;;;;17.08;100.00;100262.56;5102205;27;20045;-78
2023/06/11 04:02:21;;;;;;;18.98;12.02;;;;;;;17.03;100.00;100256.94;5109088;27;20026;-78
2023/06/11 04:04:47;;;;;;;17.20;11.80;;;;;;;16.99;100.00;100250.34;5090985;27;20102;-77
2023/06/11 04:07:12;;;;;;;20.30;12.95;;;;;;;16.98;100.00;100257.53;5095088;27;20120;-78
2023/06/11 04:09:39;;;;;;;18.77;12.70;;;;;;;16.98;100.00;100262.84;5078429;28;20039;-77
2023/06/11 04:12:06;;;;;;;20.60;13.25;;;;;;;17.01;100.00;100266.97;5041678;28;20527;-77
2023/06/11 04:14:33;;;;;;;19.00;13.35;;;;;;;16.99;100.00;100261.84;5053311;28;20107;-78
2023/06/11 04:16:59;;;;;;;22.02;13.27;;;;;;;17.00;100.00;100262.66;5057395;28;20122;-78
2023/06/11 04:19:25;;;;;;;18.55;13.40;;;;;;;16.95;100.00;100255.22;5063791;28;20391;-78
2023/06/11 04:21:51;;;;;;;17.95;12.95;;;;;;;16.97;100.00;100257.72;5090325;28;20036;-78
2023/06/11 04:24:17;;;;;;;22.67;13.07;;;;;;;16.93;100.00;100259.94;5064140;28;20035;-79
2023/06/11 04:26:44;;;;;;;17.25;12.75;;;;;;;16.86;100.00;100254.56;5071652;28;20378;-79
2023/06/11 04:29:13;;;;;;;20.75;12.95;;;;;;;16.82;100.00;100258.59;5081169;28;20640;-78
2023/06/11 04:31:41;;;;;;;20.95;13.18;;;;;;;16.82;100.00;100263.09;5053842;28;20029;-78
2023/06/11 04:34:08;;;;;;;17.15;11.07;;;;;;;16.83;100.00;100262.91;5053137;28;20032;-78
2023/06/11 04:36:38;;;;;;;14.80;10.30;;;;;;;16.83;100.00;100259.44;5047454;28;20040;-79
2023/06/11 04:39:05;;;;;;;16.00;8.18;;;;;;;16.80;100.00;100257.16;5070623;28;20028;-78
2023/06/11 04:41:32;;;;;;;11.40;8.00;;;;;;;16.79;100.00;100258.16;5045912;28;20090;-79
2023/06/11 04:44:01;;;;;;;11.48;6.65;;;;;;;16.76;100.00;100263.88;5078354;28;20142;-78
2023/06/11 04:46:29;;;;;;;10.57;6.43;;;;;;;16.73;100.00;100257.91;5078118;28;20571;-78
2023/06/11 04:49:00;;;;;;;10.50;6.40;;;;;;;16.70;100.00;100246.78;5070626;28;20028;-78
2023/06/11 04:51:32;;;;;;;9.38;7.30;;;;;;;16.69;100.00;100253.94;5080896;28;20071;-78
2023/06/11 04:54:01;;;;;;;7.10;5.88;;;;;;;16.69;100.00;100245.13;4983507;28;20055;-79
2023/06/11 04:56:28;;;;;;;7.82;5.43;;;;;;;16.64;100.00;100247.53;5055346;28;20056;-79
2023/06/11 04:58:54;;;;;;;6.90;5.07;;;;;;;16.64;100.00;100252.88;5078679;28;20035;-79
2023/06/11 05:01:20;;;;;;;6.25;4.80;;;;;;;16.66;100.00;100248.19;5074457;28;20040;-78
2023/06/11 05:03:46;;;;;;;7.15;5.10;;;;;;;16.65;100.00;100250.03;5045961;28;20106;-78
2023/06/11 05:06:13;;;;;;;6.90;4.78;;;;;;;16.66;100.00;100253.53;5082857;27;20779;-79
2023/06/11 05:08:41;;;;;;;7.18;5.55;;;;;;;16.68;100.00;100246.97;5105976;27;20526;-79
2023/06/11 05:11:07;;;;;;;7.80;5.70;;;;;;;16.72;100.00;100258.09;5109453;27;20036;-78
2023/06/11 05:13:34;;;;;;;9.70;6.95;;;;;;;16.71;100.00;100251.09;5088452;27;20125;-79
2023/06/11 05:16:04;;;;;;;10.27;6.85;;;;;;;16.74;100.00;100250.72;5110374;27;20106;-79
2023/06/11 05:18:31;;;;;;;8.45;6.43;;;;;;;16.74;100.00;100251.53;5079610;27;20485;-79
2023/06/11 05:21:00;;;;;;;7.97;6.50;;;;;;;16.74;100.00;100258.72;5074754;28;20031;-79
2023/06/11 05:23:31;;;;;;;11.98;7.53;;;;;;;16.80;100.00;100254.47;5072496;27;20037;-79
2023/06/11 05:26:02;;;;;;;10.70;7.72;;;;;;;16.85;100.00;100265.41;5113109;27;20034;-78
2023/06/11 05:28:31;;;;;;;8.23;7.13;;;;;;;16.89;100.00;100274.69;5094513;27;20115;-78
2023/06/11 05:30:59;;;;;;;9.57;7.43;;;;;;;16.96;100.00;100275.56;5075732;28;20039;-78
2023/06/11 05:33:26;;;;;;;10.45;7.88;;;;;;;17.01;100.00;100264.31;5094592;27;20399;-78
2023/06/11 05:35:52;;;;;;;12.18;8.98;;;;;;;16.99;100.00;100269.03;5098257;27;20035;-78
2023/06/11 05:38:19;;;;;;;10.27;8.63;;;;;;;16.94;100.00;100260.75;5112253;27;20138;-79
2023/06/11 05:40:45;;;;;;;13.57;8.68;;;;;;;16.88;100.00;100257.03;5109140;27;20417;-79
2023/06/11 05:43:11;;;;;;;12.10;8.82;;;;;;;16.95;100.00;100267.75;5092392;28;20480;-78
2023/06/11 05:45:45;;;;;;;10.90;7.85;;;;;;;17.01;100.00;100266.19;5073420;27;20035;-76
2023/06/11 05:48:11;;;;;;;11.52;8.75;;;;;;;17.05;100.00;100270.94;5074553;28;20053;-78
2023/06/11 05:50:38;;;;;;;8.68;7.13;;;;;;;17.13;100.00;100282.53;5115589;27;20102;-78
2023/06/11 05:53:03;;;;;;;12.15;7.07;;;;;;;17.20;100.00;100278.09;5103148;28;20539;-78
2023/06/11 05:55:30;;;;;;;10.85;6.93;;;;;;;17.29;100.00;100281.44;5078001;27;20393;-78
2023/06/11 05:57:57;;;;;;;9.35;6.75;;;;;;;17.33;100.00;100278.19;5101216;28;20032;-78
2023/06/11 06:00:23;;;;;;;9.80;7.55;;;;;;;17.34;100.00;100279.00;5093001;27;20123;-78
2023/06/11 06:02:52;;;;;;;8.32;6.05;;;;;;;17.39;100.00;100279.25;5101738;28;20484;-78
2023/06/11 06:05:25;;;;;;;10.85;6.82;;;;;;;17.48;100.00;100278.09;5085894;27;20024;-78
2023/06/11 06:07:51;;;;;;;8.52;6.28;;;;;;;17.52;100.00;100283.06;5092169;27;20519;-78
2023/06/11 06:10:17;;;;;;;9.48;6.38;;;;;;;17.57;100.00;100272.59;5116070;27;20031;-77
2023/06/11 06:12:43;;;;;;;8.35;5.95;;;;;;;17.63;100.00;100281.69;5119015;27;20031;-76
2023/06/11 06:15:10;;;;;;;8.13;5.82;;;;;;;17.67;100.00;100275.75;5108877;28;20504;-78
2023/06/11 06:17:39;;;;;;;6.65;5.85;;;;;;;17.71;100.00;100271.66;5103497;27;20053;-78
2023/06/11 06:20:06;;;;;;;7.13;4.80;;;;;;;17.71;100.00;100277.00;5091667;28;20039;-78
2023/06/11 06:22:32;;;;;;;7.63;4.85;;;;;;;17.70;100.00;100277.19;5071116;27;20035;-81
2023/06/11 06:24:58;;;;;;;6.68;5.05;;;;;;;17.70;100.00;100277.19;5129819;27;20031;-81
2023/06/11 06:27:24;;;;;;;7.30;4.22;;;;;;;17.69;100.00;100278.22;5114448;27;20556;-78
2023/06/11 06:29:50;;;;;;;6.22;4.28;;;;;;;17.66;100.00;100283.97;5074381;27;20031;-78
2023/06/11 06:32:16;;;;;;;6.50;4.50;;;;;;;17.65;100.00;100284.97;5094499;28;20023;-78
2023/06/11 06:34:42;;;;;;;6.05;4.80;;;;;;;17.65;100.00;100283.13;5117234;27;20515;-79
2023/06/11 06:37:11;;;;;;;5.97;5.32;;;;;;;17.66;100.00;100284.78;5098119;27;20046;-78
2023/06/11 06:39:38;;;;;;;7.32;5.28;;;;;;;17.68;100.00;100284.56;5093060;27;20127;-78
2023/06/11 06:42:06;;;;;;;7.28;5.32;;;;;;;17.73;100.00;100288.34;5124382;28;20031;-77
2023/06/11 06:44:38;;;;;;;8.52;5.72;;;;;;;17.73;100.00;100285.66;5125741;27;20061;-77
2023/06/11 06:47:04;;;;;;;6.90;4.95;;;;;;;17.80;100.00;100292.88;5071412;28;20048;-78
2023/06/11 06:49:30;;;;;;;7.38;5.80;;;;;;;17.79;100.00;100291.25;5091279;27;20030;-78
2023/06/11 06:51:55;;;;;;;7.72;5.15;;;;;;;17.80;100.00;100299.06;5081843;28;20038;-78
2023/06/11 06:54:21;;;;;;;7.03;4.85;;;;;;;17.83;100.00;100298.69;5074055;27;20026;-78
2023/06/11 06:56:49;;;;;;;7.82;4.97;;;;;;;17.84;100.00;100294.13;5072986;28;20119;-77
2023/06/11 06:59:16;;;;;;;7.40;5.22;;;;;;;17.85;100.00;100299.28;5090267;27;20042;-78
2023/06/11 07:01:43;;;;;;;5.53;4.90;;;;;;;17.90;100.00;100301.38;5075180;28;20807;-78
2023/06/11 07:04:09;;;;;;;5.95;4.88;;;;;;;17.92;100.00;100299.34;5079220;27;20034;-78
2023/06/11 07:06:36;;;;;;;4.70;4.30;;;;;;;17.91;100.00;100299.53;5103369;28;20035;-78
2023/06/11 07:09:03;;;;;;;5.10;4.50;;;;;;;17.94;100.00;100301.81;5072928;28;20032;-78
2023/06/11 07:11:29;;;;;;;6.95;4.53;;;;;;;17.93;100.00;100295.63;5070551;28;20040;-78
2023/06/11 07:13:56;;;;;;;6.20;4.57;;;;;;;17.88;100.00;100292.75;5051747;28;20044;-78
2023/06/11 07:16:22;;;;;;;7.68;4.68;;;;;;;17.90;100.00;100297.91;5059124;28;20036;-78
2023/06/11 07:18:55;;;;;;;8.50;4.70;;;;;;;17.95;100.00;100296.28;5064162;28;20043;-77
2023/06/11 07:21:23;;;;;;;5.55;4.63;;;;;;;18.07;100.00;100293.88;5073098;28;20036;-79
2023/06/11 07:23:50;;;;;;;4.93;4.00;;;;;;;18.20;100.00;100301.16;5081711;28;20047;-79
2023/06/11 07:26:18;;;;;;;5.07;4.13;;;;;;;18.32;100.00;100304.09;5091996;28;20032;-77
2023/06/11 07:28:45;;;;;;;4.63;3.75;;;;;;;18.41;100.00;100299.38;5065227;28;20110;-82
2023/06/11 07:31:12;;;;;;;12.05;4.35;;;;;;;18.61;100.00;100304.00;5065821;28;20070;-80
2023/06/11 07:33:41;;;;;;;4.50;3.20;;;;;;;18.88;100.00;100292.50;5068162;28;20036;-80
2023/06/11 07:36:07;;;;;;;4.78;3.42;;;;;;;18.95;100.00;100296.03;5086922;28;20132;-77
2023/06/11 07:38:33;;;;;;;5.22;3.58;;;;;;;19.04;100.00;100294.81;5045132;28;20040;-77
2023/06/11 07:41:01;;;;;;;3.30;2.90;;;;;;;19.05;100.00;100299.13;5067692;28;20035;-79
2023/06/11 07:43:27;;;;;;;4.13;2.78;;;;;;;18.96;100.00;100300.38;5067660;28;20024;-78
2023/06/11 07:45:52;;;;;;;4.07;3.05;;;;;;;18.89;100.00;100308.38;5080909;28;20374;-78
2023/06/11 07:48:19;;;;;;;3.88;3.05;;;;;;;18.94;100.00;100302.41;5055027;28;20059;-79
2023/06/11 07:50:48;;;;;;;2.75;2.55;;;;;;;19.17;100.00;100311.97;5086535;28;20043;-76
2023/06/11 07:53:18;;;;;;;3.42;3.03;;;;;;;19.31;100.00;100310.94;5086233;28;20028;-80
2023/06/11 07:55:47;;;;;;;3.08;2.70;;;;;;;19.33;100.00;100302.69;5079505;28;20041;-81
2023/06/11 07:58:13;;;;;;;4.28;2.85;;;;;;;19.34;100.00;100307.84;5087044;28;20020;-77
2023/06/11 08:00:39;;;;;;;4.20;2.47;;;;;;;19.51;100.00;100314.66;5078612;28;20055;-80
2023/06/11 08:03:04;;;;;;;4.10;2.95;;;;;;;19.71;100.00;100310.09;5072085;28;20489;-77
2023/06/11 08:05:30;;;;;;;2.08;1.88;;;;;;;19.73;100.00;100315.25;5066549;28;20506;-76
2023/06/11 08:07:56;;;;;;;3.47;2.50;;;;;;;19.71;100.00;100314.63;5100721;27;20031;-81
2023/06/11 08:10:21;;;;;;;2.85;2.00;;;;;;;19.66;100.00;100317.94;5131873;27;20515;-79
2023/06/11 08:12:47;;;;;;;4.95;2.00;;;;;;;19.65;100.00;100312.78;5104453;27;20035;-79
2023/06/11 08:15:13;;;;;;;2.35;2.00;;;;;;;19.67;100.00;100319.56;5101256;27;20034;-78
2023/06/11 08:17:38;;;;;;;2.65;2.22;;;;;;;19.66;100.00;100312.56;5105979;27;20035;-79
2023/06/11 08:20:07;;;;;;;2.45;2.03;;;;;;;19.67;100.00;100322.25;5097813;27;20063;-79
2023/06/11 08:22:33;;;;;;;2.35;1.60;;;;;;;19.75;100.00;100313.16;5092956;27;20121;-79
2023/06/11 08:24:58;;;;;;;2.28;1.70;;;;;;;19.73;100.00;100317.09;5096885;27;20045;-79
2023/06/11 08:27:24;;;;;;;3.63;1.98;;;;;;;19.72;100.00;100316.25;5096234;27;20023;-79
2023/06/11 08:29:50;;;;;;;2.72;1.90;;;;;;;19.73;100.00;100323.28;5113402;27;20468;-79
2023/06/11 08:32:16;;;;;;;2.50;1.67;;;;;;;19.76;100.00;100322.88;5096465;27;20099;-79
2023/06/11 08:34:42;;;;;;;1.90;1.60;;;;;;;19.75;100.00;100323.09;5109565;28;20077;-79
2023/06/11 08:37:08;;;;;;;2.60;1.92;;;;;;;19.74;100.00;100327.59;5107685;27;20541;-81
2023/06/11 08:39:34;;;;;;;4.00;1.77;;;;;;;19.77;100.00;100324.50;5110938;27;20103;-79
2023/06/11 08:42:00;;;;;;;3.22;1.90;;;;;;;19.80;100.00;100313.38;5082245;27;20056;-79
2023/06/11 08:44:26;;;;;;;2.15;1.95;;;;;;;19.86;100.00;100326.97;5117555;27;20392;-80
2023/06/11 08:46:55;;;;;;;3.28;1.70;;;;;;;19.88;100.00;100320.38;5114338;27;20027;-79
2023/06/11 08:49:22;;;;;;;2.20;1.17;;;;;;;19.87;100.00;100315.22;5112373;27;20035;-77
2023/06/11 08:51:49;;;;;;;1.73;1.10;;;;;;;19.81;100.00;100319.56;5109218;27;20088;-79
2023/06/11 08:54:16;;;;;;;2.92;1.55;;;;;;;19.83;100.00;100322.84;5103544;27;20034;-77
2023/06/11 08:56:43;;;;;;;1.38;1.27;;;;;;;19.85;100.00;100320.78;5101010;27;20041;-79
2023/06/11 08:59:09;;;;;;;1.75;1.30;;;;;;;19.93;100.00;100323.25;5107836;27;20042;-78
2023/06/11 09:01:35;;;;;;;2.15;1.30;;;;;;;19.98;100.00;100322.63;5100052;27;20036;-77
2023/06/11 09:04:01;;;;;;;4.15;0.95;;;;;;;20.06;100.00;100321.59;5094138;27;20597;-78
2023/06/11 09:06:28;;;;;;;4.07;1.20;;;;;;;20.15;100.00;100314.97;5068913;28;20044;-77
2023/06/11 09:08:58;;;;;;;1.70;1.27;;;;;;;20.26;100.00;100318.84;5067768;28;20032;-78
2023/06/11 09:11:30;;;;;;;1.23;1.13;;;;;;;20.28;100.00;100316.78;5055803;28;20032;-79
2023/06/11 09:13:56;;;;;;;2.22;0.98;;;;;;;20.27;100.00;100325.03;5081180;28;20178;-77
2023/06/11 09:16:22;;;;;;;1.88;1.20;;;;;;;20.29;100.00;100318.41;5077644;28;20475;-78
2023/06/11 09:18:48;;;;;;;0.82;0.75;;;;;;;20.30;100.00;100313.88;5070119;28;20043;-78
2023/06/11 09:21:14;;;;;;;2.58;0.75;;;;;;;20.31;100.00;100315.50;5076602;28;20031;-78
2023/06/11 09:23:39;;;;;;;2.50;1.05;;;;;;;20.31;100.00;100312.84;5064673;28;20032;-78
2023/06/11 09:26:05;;;;;;;1.73;1.15;;;;;;;20.33;100.00;100308.09;5082942;28;20059;-79
2023/06/11 09:28:36;;;;;;;2.47;0.85;;;;;;;20.41;100.00;100307.84;5083036;28;20035;-79
2023/06/11 09:31:03;;;;;;;2.25;1.08;;;;;;;20.53;100.00;100310.66;5048887;28;20040;-77
2023/06/11 09:33:31;;;;;;;2.85;0.90;;;;;;;20.57;100.00;100317.28;5071481;28;20060;-81
2023/06/11 09:35:58;;;;;;;1.95;1.00;;;;;;;20.65;100.00;100308.16;5076869;28;20044;-81
2023/06/11 09:38:24;;;;;;;1.35;0.90;;;;;;;20.72;100.00;100308.09;5075414;28;20120;-78
2023/06/11 09:40:53;;;;;;;0.80;0.73;;;;;;;20.77;100.00;100313.63;5082600;28;20024;-77
2023/06/11 09:43:21;;;;;;;1.02;0.80;;;;;;;20.80;100.00;100312.41;5067024;28;20085;-79
2023/06/11 09:45:52;;;;;;;2.03;1.10;;;;;;;20.88;100.00;100309.44;5064818;28;20071;-79
2023/06/11 09:48:20;;;;;;;4.35;1.58;;;;;;;20.99;100.00;100307.94;5086592;28;20107;-78
2023/06/11 09:50:48;;;;;;;1.55;1.00;;;;;;;21.00;100.00;100312.31;5059826;28;20059;-78
2023/06/11 09:53:15;;;;;;;2.25;0.98;;;;;;;21.05;100.00;100307.06;5052745;28;20031;-78
2023/06/11 09:55:41;;;;;;;3.03;0.82;;;;;;;21.16;100.00;100312.81;5070061;28;20075;-80
2023/06/11 09:58:08;;;;;;;1.77;1.05;;;;;;;21.24;100.00;100311.72;5061053;28;20025;-79
2023/06/11 10:00:35;;;;;;;4.10;1.10;;;;;;;21.27;100.00;100309.41;5087041;28;20047;-79
2023/06/11 10:03:01;;;;;;;1.60;0.90;;;;;;;21.30;100.00;100321.59;5068431;28;20115;-80
2023/06/11 10:05:28;;;;;;;1.67;0.98;;;;;;;21.32;100.00;100316.81;5046570;28;20062;-80
2023/06/11 10:08:08;;;;;;;1.10;1.00;;;;;;;21.36;100.00;100314.53;5082732;28;20181;-79
2023/06/11 10:10:41;;;;;;;1.17;0.80;;;;;;;21.36;100.00;100307.25;5091525;28;20089;-80
2023/06/11 10:13:07;;;;;;;2.05;1.10;;;;;;;21.38;100.00;100318.63;5092217;28;20043;-79
2023/06/11 10:15:36;;;;;;;2.03;0.90;;;;;;;21.48;100.00;100317.31;5084455;28;20050;-79
2023/06/11 10:18:12;;;;;;;2.15;1.00;;;;;;;21.50;100.00;100320.59;5091590;28;20385;-79
2023/06/11 10:20:51;;;;;;;3.78;1.30;;;;;;;21.54;100.00;100322.63;5066906;28;20031;-78
2023/06/11 10:23:18;;;;;;;1.38;1.05;;;;;;;21.54;100.00;100316.41;5092391;28;20035;-79
2023/06/11 10:25:53;;;;;;;1.80;0.90;;;;;;;21.61;100.00;100311.00;5104560;28;20131;-78
2023/06/11 10:28:19;;;;;;;10.18;0.95;;;;;;;21.63;100.00;100309.72;5106329;28;20046;-80
2023/06/11 10:30:53;;;;;;;4.35;1.52;;;;;;;21.69;100.00;100306.13;5074498;28;20485;-78
2023/06/11 10:33:20;;;;;;;1.70;1.13;;;;;;;21.65;100.00;100325.63;5091213;28;20171;-78
2023/06/11 10:35:47;;;;;;;1.20;0.80;;;;;;;21.63;100.00;100312.41;5095991;28;20055;-79
2023/06/11 10:38:15;;;;;;;4.15;1.25;;;;;;;21.66;100.00;100321.91;5090621;28;20035;-79
2023/06/11 10:40:41;;;;;;;2.63;1.20;;;;;;;21.67;100.00;100320.84;5006461;28;20039;-81
2023/06/11 10:43:20;;;;;;;1.67;1.20;;;;;;;21.74;100.00;100320.81;5081880;28;20032;-79
2023/06/11 10:45:59;;;;;;;1.80;1.13;;;;;;;21.74;100.00;100318.13;5094464;28;20047;-79
2023/06/11 10:48:29;;;;;;;2.22;1.20;;;;;;;21.80;100.00;100322.63;5092104;28;20031;-81
2023/06/11 10:51:03;;;;;;;2.30;1.08;;;;;;;21.84;100.00;100323.00;5095447;28;20552;-80
2023/06/11 10:53:40;;;;;;;1.40;1.25;;;;;;;21.87;100.00;100320.69;5093749;28;20122;-80
2023/06/11 10:56:07;;;;;;;2.90;1.15;;;;;;;21.90;100.00;100324.78;5069342;28;20681;-79
2023/06/11 10:58:33;;;;;;;1.98;1.40;;;;;;;21.90;100.00;100322.94;5091756;28;20374;-78
2023/06/11 11:01:03;;;;;;;3.00;1.15;;;;;;;21.93;100.00;100325.16;5085721;28;20031;-80
2023/06/11 11:03:31;;;;;;;1.30;0.95;;;;;;;21.95;100.00;100332.22;5091939;28;20028;-80
2023/06/11 11:05:58;;;;;;;1.30;0.80;;;;;;;22.03;100.00;100326.50;5095135;27;20399;-81
2023/06/11 11:08:24;;;;;;;7.47;1.40;;;;;;;22.11;100.00;100323.53;5071384;28;20430;-80
2023/06/11 11:10:59;;;;;;;2.88;1.02;;;;;;;22.21;100.00;100328.41;5092207;28;20035;-80